header image
aktuelles Wetter

 Wetter METAR LOWG 210920Z 19005KT 140V220 9999 FEW030 BKN080 15/10 Q1006 NOSIG=

Privatpilotenkurs in Graz


Träumst du noch - oder fliegst du schon Sollte ersteres zutreffen, besteht jetzt die Möglichkeit deine Träume in die Realität umzusetzen. Eine Ausbildung ohne Stress in geselliger Vereinsatmosphäre. Sicherheit, hochwertige Ausbildung sowie günstiges Fliegen mit TOP gewarteten Flugzeugen ... 

Read more...
Einfach günstig fliegen

  

Träumst du noch - oder fliegst du schon Sollte zweiteres zutreffen, dann bist du bei uns richtig. Einfach GSV - Mitglied werden.  Diamond Katana DA20 ... um € 2,05/min
Diamond HK36/TTC ... um € 1,70/min
Scheibe Falke SF25D ...
 um  € 95,00/MH Mitgliedsbeitrag ............... € 220,00/Jahr
Ruf uns einfach an Kontakt und komm zu unserem Clubtreff. Grazer Sportflieger Verein 

Natur puuuur genießen

 fl_dg.jpg - 16.97 Kb 

Fliegen, Relaxen, Wohlfühlen. Mit dem Segelflieger abheben und Natur pur genießen. Lautlos über das Land gleiten. Mit unseren modernen Segelflugzeugen ist dieses Erlebnis garantiert. 

 

GSV-NEWSFLASH
Anfliegen2018

Unser Anfliegen am Sonntag dem 8.4.2018 fand bei herrlichem Frühlingswetter in LOKW statt.

Read more...
Privatpilotenausbildung in Graz
geänderte Sprechfunkverfahren
Die ACG hat einige Anpassungen an der Phrasologie durchgeführt ...
Read more...
Bilder
GSV-LOKW_009.JPG
Wer ist Online
No Users Online